Time;durP1;ratioP1;P1;durP2;ratioP2;P2;SDS_P1;SDS_P2;PMS_P1;PMS_P2;Temp;Humidity;BMP_temperature;BMP_pressure;BME280_temperature;BME280_humidity;BME280_pressure;Samples;Min_cycle;Max_cycle;Signal;HPM_P1;HPM_P2
2022/03/29 00:00:36;;;;;;;50.38;24.60;;;;;;;11.08;69.77;101872.06;4921942;28;20042;-59
2022/03/29 00:03:05;;;;;;;47.67;24.75;;;;;;;11.25;69.13;101866.44;4936787;28;20383;-54
2022/03/29 00:05:31;;;;;;;53.17;24.85;;;;;;;11.11;69.47;101859.97;4933663;28;20572;-54
2022/03/29 00:07:56;;;;;;;51.60;25.27;;;;;;;11.22;69.26;101863.72;4935354;28;20125;-54
2022/03/29 00:10:22;;;;;;;45.95;24.25;;;;;;;11.24;69.24;101858.56;4933195;28;20347;-51
2022/03/29 00:12:50;;;;;;;50.53;24.33;;;;;;;11.16;69.21;101854.88;4923708;28;20054;-52
2022/03/29 00:15:15;;;;;;;47.00;24.00;;;;;;;11.09;69.60;101851.22;4936927;28;20031;-53
2022/03/29 00:17:41;;;;;;;49.05;24.77;;;;;;;11.15;69.28;101851.38;4936681;28;20954;-53
2022/03/29 00:20:08;;;;;;;46.92;24.40;;;;;;;11.07;69.17;101839.84;4935705;28;20510;-50
2022/03/29 00:22:34;;;;;;;46.55;24.08;;;;;;;11.09;69.17;101843.41;4932324;28;20047;-59
2022/03/29 00:24:59;;;;;;;43.05;23.55;;;;;;;11.19;68.86;101827.13;4940557;28;20034;-55
2022/03/29 00:27:25;;;;;;;45.72;24.10;;;;;;;11.01;69.38;101833.59;4940030;28;20138;-54
2022/03/29 00:29:50;;;;;;;41.80;23.27;;;;;;;11.23;68.27;101833.28;4930656;28;20673;-54
2022/03/29 00:32:16;;;;;;;44.38;22.83;;;;;;;11.15;68.37;101830.50;4928632;28;20045;-53
2022/03/29 00:34:42;;;;;;;44.75;23.42;;;;;;;11.05;68.40;101818.03;4930802;28;20483;-52
2022/03/29 00:37:08;;;;;;;47.33;23.58;;;;;;;10.91;68.44;101822.03;4937580;28;20105;-52
2022/03/29 00:39:33;;;;;;;45.42;22.77;;;;;;;10.92;68.64;101826.38;4936950;28;20613;-52
2022/03/29 00:42:00;;;;;;;41.88;22.33;;;;;;;10.89;67.94;101818.50;4935485;28;20042;-51
2022/03/29 00:44:33;;;;;;;42.85;22.27;;;;;;;10.72;68.33;101819.75;4938422;28;20356;-54
2022/03/29 00:47:00;;;;;;;40.13;21.92;;;;;;;10.81;67.75;101813.06;4928524;28;20046;-54
2022/03/29 00:49:26;;;;;;;40.70;22.27;;;;;;;10.89;67.69;101815.88;4935937;28;20242;-52
2022/03/29 00:51:58;;;;;;;41.85;22.30;;;;;;;10.80;67.66;101815.59;4935619;28;20448;-52
2022/03/29 00:54:24;;;;;;;40.63;22.08;;;;;;;10.75;67.79;101815.50;4933786;28;20046;-50
2022/03/29 00:56:50;;;;;;;42.47;22.00;;;;;;;10.75;67.85;101812.00;4931584;28;20520;-53
2022/03/29 00:59:16;;;;;;;45.65;22.58;;;;;;;10.80;68.02;101806.06;4941198;28;20039;-54
2022/03/29 01:01:41;;;;;;;43.92;22.02;;;;;;;10.92;67.44;101813.34;4939289;28;20046;-53
2022/03/29 01:04:07;;;;;;;41.13;22.00;;;;;;;10.85;67.35;101804.50;4935814;28;20042;-53
2022/03/29 01:06:33;;;;;;;39.45;21.20;;;;;;;10.86;67.40;101801.00;4929638;28;20450;-54
2022/03/29 01:08:58;;;;;;;41.47;21.73;;;;;;;10.80;67.61;101803.44;4936155;28;20046;-53
2022/03/29 01:11:25;;;;;;;43.70;23.52;;;;;;;10.76;67.67;101803.34;4937723;28;20511;-55
2022/03/29 01:13:51;;;;;;;41.67;22.52;;;;;;;10.90;67.17;101800.28;4931412;28;20050;-54
2022/03/29 01:19:05;;;;;;;40.43;22.43;;;;;;;10.86;67.51;101793.19;4933714;28;20157;-51
2022/03/29 01:21:32;;;;;;;40.88;22.02;;;;;;;10.88;67.19;101790.63;4931257;28;20740;-54
2022/03/29 01:23:59;;;;;;;48.35;22.80;;;;;;;10.77;67.33;101786.84;4931742;28;20646;-55
2022/03/29 01:26:25;;;;;;;44.20;22.15;;;;;;;10.72;68.00;101783.25;4931053;28;20414;-53
2022/03/29 01:28:50;;;;;;;42.22;22.67;;;;;;;10.80;67.59;101792.13;4926804;28;20550;-51
2022/03/29 01:31:16;;;;;;;43.00;22.42;;;;;;;10.75;67.80;101780.69;4935296;28;20128;-52
2022/03/29 01:33:44;;;;;;;41.53;22.45;;;;;;;10.79;67.55;101779.97;4937822;28;20050;-50
2022/03/29 01:36:09;;;;;;;39.75;21.80;;;;;;;10.88;66.95;101782.81;4932395;28;20172;-52
2022/03/29 01:38:38;;;;;;;40.97;22.77;;;;;;;10.78;67.02;101780.81;4938077;28;20049;-56
2022/03/29 01:41:05;;;;;;;40.22;22.08;;;;;;;10.74;67.23;101773.72;4935881;28;20085;-53
2022/03/29 01:43:34;;;;;;;41.83;21.77;;;;;;;10.73;67.39;101770.25;4938087;28;20568;-55
2022/03/29 01:45:59;;;;;;;40.47;21.30;;;;;;;10.75;67.72;101775.47;4944232;28;20050;-54
2022/03/29 01:48:26;;;;;;;43.22;22.40;;;;;;;10.67;67.48;101771.81;4940462;28;20050;-53
2022/03/29 01:50:51;;;;;;;43.63;22.00;;;;;;;10.65;67.76;101768.25;4932465;28;20104;-50
2022/03/29 01:53:25;;;;;;;41.05;21.73;;;;;;;10.56;67.40;101767.16;4944660;28;20394;-53
2022/03/29 01:55:59;;;;;;;39.38;21.13;;;;;;;10.64;67.20;101769.09;4941806;28;20055;-53
2022/03/29 01:58:26;;;;;;;43.15;22.50;;;;;;;10.66;67.65;101764.81;4941794;28;20046;-51
2022/03/29 02:00:52;;;;;;;40.85;21.50;;;;;;;10.65;67.77;101756.13;4932537;28;20050;-54
2022/03/29 02:03:18;;;;;;;44.22;22.80;;;;;;;10.67;67.46;101754.44;4940081;28;20065;-52
2022/03/29 02:05:43;;;;;;;46.15;22.45;;;;;;;10.60;67.85;101743.78;4941214;28;20097;-52
2022/03/29 02:08:08;;;;;;;42.47;21.88;;;;;;;10.66;67.61;101738.75;4943817;28;20078;-54
2022/03/29 02:10:34;;;;;;;43.92;22.38;;;;;;;10.49;67.70;101739.16;4935369;28;20420;-60
2022/03/29 02:13:00;;;;;;;41.17;22.27;;;;;;;10.42;68.42;101739.84;4938539;28;20375;-52
2022/03/29 02:15:26;;;;;;;43.55;22.52;;;;;;;10.35;68.71;101732.69;4940408;28;20043;-50
2022/03/29 02:17:52;;;;;;;40.13;21.08;;;;;;;10.43;68.33;101735.53;4940408;28;20039;-51
2022/03/29 02:20:19;;;;;;;43.83;22.45;;;;;;;10.42;68.39;101732.03;4939256;28;20042;-51
2022/03/29 02:22:45;;;;;;;41.80;22.75;;;;;;;10.43;68.83;101730.31;4934874;28;20047;-52
2022/03/29 02:25:11;;;;;;;46.53;22.70;;;;;;;10.37;69.11;101728.38;4944621;28;20081;-51
2022/03/29 02:27:38;;;;;;;43.08;22.40;;;;;;;10.40;68.72;101725.88;4938270;28;20046;-53
2022/03/29 02:30:06;;;;;;;44.58;22.58;;;;;;;10.26;68.95;101722.00;4940200;28;20039;-54
2022/03/29 02:32:31;;;;;;;47.58;23.05;;;;;;;10.27;69.35;101715.06;4938951;28;20517;-53
2022/03/29 02:34:57;;;;;;;44.25;22.88;;;;;;;10.37;68.78;101704.91;4938111;28;20118;-54
2022/03/29 02:37:23;;;;;;;45.83;22.63;;;;;;;10.42;68.73;101705.06;4938122;28;20401;-51
2022/03/29 02:39:49;;;;;;;44.35;22.88;;;;;;;10.35;69.16;101700.53;4943101;28;20144;-53
2022/03/29 02:42:14;;;;;;;43.70;22.55;;;;;;;10.44;68.86;101704.25;4934775;28;20070;-54
2022/03/29 02:44:39;;;;;;;44.95;22.75;;;;;;;10.40;69.15;101704.13;4934301;28;20085;-53
2022/03/29 02:47:05;;;;;;;47.20;23.45;;;;;;;10.42;69.06;101699.84;4942631;28;20059;-54
2022/03/29 02:49:30;;;;;;;43.75;22.63;;;;;;;10.39;69.16;101691.94;4936097;28;20043;-52
2022/03/29 02:51:56;;;;;;;43.28;22.05;;;;;;;10.51;69.26;101692.28;4939374;28;20105;-52
2022/03/29 02:54:21;;;;;;;46.70;22.92;;;;;;;10.43;69.03;101678.16;4944110;28;21067;-53
2022/03/29 02:56:46;;;;;;;46.97;22.98;;;;;;;10.32;69.11;101677.84;4929249;28;20231;-53
2022/03/29 02:59:13;;;;;;;49.22;23.17;;;;;;;10.35;69.25;101672.75;4938794;28;20055;-55
2022/03/29 03:01:39;;;;;;;41.92;22.02;;;;;;;10.41;69.03;101678.13;4938257;28;20042;-53
2022/03/29 03:04:04;;;;;;;47.17;23.05;;;;;;;10.36;69.29;101679.72;4942939;28;20076;-54
2022/03/29 03:06:30;;;;;;;45.72;23.77;;;;;;;10.37;69.07;101680.63;4935344;28;20039;-52
2022/03/29 03:08:55;;;;;;;49.10;23.77;;;;;;;10.42;68.79;101681.63;4933060;28;20733;-55
2022/03/29 03:11:22;;;;;;;44.72;22.92;;;;;;;10.44;68.93;101670.38;4929822;28;20053;-57
2022/03/29 03:13:48;;;;;;;46.75;23.35;;;;;;;10.39;69.22;101665.88;4945237;28;20038;-51
2022/03/29 03:16:13;;;;;;;45.28;23.27;;;;;;;10.45;68.63;101671.25;4940378;28;20394;-56
2022/03/29 03:18:39;;;;;;;43.67;22.42;;;;;;;10.32;69.04;101666.53;4928874;28;20282;-50
2022/03/29 03:21:04;;;;;;;44.90;22.27;;;;;;;10.25;69.29;101668.09;4936035;28;20038;-55
2022/03/29 03:23:30;;;;;;;47.65;23.38;;;;;;;10.31;69.43;101662.16;4940131;28;20100;-55
2022/03/29 03:25:55;;;;;;;45.50;22.95;;;;;;;10.37;69.03;101657.16;4927255;28;20053;-53
2022/03/29 03:28:21;;;;;;;48.58;23.65;;;;;;;10.40;68.90;101647.69;4934924;28;20046;-56
2022/03/29 03:30:46;;;;;;;48.25;24.05;;;;;;;10.34;69.24;101657.06;4935387;28;20070;-50
2022/03/29 03:33:12;;;;;;;45.83;22.98;;;;;;;10.25;69.14;101651.59;4941889;28;20034;-54
2022/03/29 03:35:37;;;;;;;48.85;24.52;;;;;;;10.23;69.82;101645.47;4936924;28;20043;-55
2022/03/29 03:38:02;;;;;;;52.22;24.45;;;;;;;10.13;70.26;101641.69;4941711;28;20056;-51
2022/03/29 03:40:28;;;;;;;49.78;23.67;;;;;;;10.33;69.70;101634.44;4937077;28;20117;-51
2022/03/29 03:42:53;;;;;;;55.55;25.10;;;;;;;10.12;70.40;101637.34;4933644;28;21654;-53
2022/03/29 03:45:19;;;;;;;54.45;25.42;;;;;;;10.27;70.06;101629.94;4939864;28;20057;-50
2022/03/29 03:47:46;;;;;;;56.28;24.98;;;;;;;10.34;69.86;101624.06;4935408;28;20302;-54
2022/03/29 03:50:11;;;;;;;53.97;25.25;;;;;;;10.38;69.88;101625.00;4934978;28;20045;-52
2022/03/29 03:52:37;;;;;;;51.92;24.15;;;;;;;10.37;69.32;101624.13;4935404;28;20047;-57
2022/03/29 03:55:03;;;;;;;52.58;23.95;;;;;;;10.37;69.83;101615.44;4954365;28;20585;-54
2022/03/29 03:57:28;;;;;;;52.88;24.42;;;;;;;10.35;70.05;101614.50;4929236;28;20051;-51
2022/03/29 03:59:56;;;;;;;57.97;25.10;;;;;;;10.33;69.73;101611.88;4938708;28;20319;-53
2022/03/29 04:02:21;;;;;;;60.90;25.38;;;;;;;10.20;70.31;101612.38;4939266;28;20047;-51
2022/03/29 04:04:59;;;;;;;57.08;24.88;;;;;;;10.27;69.75;101611.69;4933519;28;20086;-54
2022/03/29 04:07:24;;;;;;;63.65;25.83;;;;;;;9.84;71.38;101611.34;4935382;28;20481;-54
2022/03/29 04:09:49;;;;;;;63.50;25.85;;;;;;;10.19;70.57;101602.78;4937078;28;20050;-53
2022/03/29 04:12:15;;;;;;;63.13;25.70;;;;;;;10.15;70.78;101603.53;4934799;28;20047;-54
2022/03/29 04:14:40;;;;;;;63.60;25.23;;;;;;;10.15;70.99;101595.72;4927603;28;20045;-52
2022/03/29 04:17:06;;;;;;;61.15;25.92;;;;;;;10.21;70.88;101595.91;4939855;28;20112;-53
2022/03/29 04:19:32;;;;;;;60.42;25.05;;;;;;;10.17;70.76;101601.88;4934218;28;20078;-55
2022/03/29 04:21:57;;;;;;;58.75;25.08;;;;;;;10.21;70.56;101589.81;4931988;28;20043;-51
2022/03/29 04:24:22;;;;;;;62.25;26.20;;;;;;;10.10;70.74;101590.38;4941649;28;20664;-50
2022/03/29 04:26:48;;;;;;;64.60;26.80;;;;;;;10.27;70.82;101597.78;4930791;28;20351;-50
2022/03/29 04:29:14;;;;;;;62.58;26.15;;;;;;;10.29;70.20;101588.28;4936640;28;20423;-56
2022/03/29 04:31:39;;;;;;;68.57;25.70;;;;;;;10.30;70.59;101590.06;4931602;28;20083;-53
2022/03/29 04:34:05;;;;;;;65.15;26.23;;;;;;;10.33;70.78;101583.19;4940424;28;20059;-52
2022/03/29 04:36:31;;;;;;;68.60;27.17;;;;;;;10.22;71.03;101584.66;4934664;28;20047;-54
2022/03/29 04:38:57;;;;;;;71.05;26.95;;;;;;;9.99;71.67;101585.75;4937118;28;20137;-54
2022/03/29 04:41:23;;;;;;;61.05;25.63;;;;;;;10.18;70.83;101581.94;4922670;28;20169;-51
2022/03/29 04:43:49;;;;;;;64.72;27.27;;;;;;;10.07;70.58;101582.47;4941590;28;20121;-51
2022/03/29 04:46:14;;;;;;;68.30;26.50;;;;;;;10.16;70.86;101581.84;4933216;28;20039;-54
2022/03/29 04:48:40;;;;;;;66.63;26.58;;;;;;;10.24;70.65;101588.19;4932474;28;20055;-52
2022/03/29 04:51:05;;;;;;;64.82;26.73;;;;;;;10.10;70.47;101586.91;4938421;28;20583;-54
2022/03/29 04:53:30;;;;;;;69.25;26.10;;;;;;;9.94;70.62;101579.53;4929945;28;20050;-52
2022/03/29 04:55:56;;;;;;;59.92;24.48;;;;;;;10.00;70.76;101577.94;4934671;28;20053;-55
2022/03/29 04:58:22;;;;;;;62.85;26.20;;;;;;;9.99;70.83;101571.00;4930737;28;20058;-52
2022/03/29 05:00:47;;;;;;;63.38;25.67;;;;;;;10.09;70.72;101575.59;4924686;28;20043;-54
2022/03/29 05:03:13;;;;;;;71.05;26.80;;;;;;;10.05;70.80;101578.97;4932992;28;20043;-53
2022/03/29 05:05:38;;;;;;;100.07;28.67;;;;;;;10.10;70.73;101573.88;4937672;28;20055;-53
2022/03/29 05:08:04;;;;;;;81.35;28.27;;;;;;;10.17;70.27;101575.84;4938797;28;20456;-53
2022/03/29 05:10:30;;;;;;;68.50;26.30;;;;;;;9.92;70.85;101576.88;4924264;28;20043;-53
2022/03/29 05:12:56;;;;;;;65.68;26.25;;;;;;;10.00;71.03;101567.53;4940293;28;20059;-52
2022/03/29 05:15:22;;;;;;;68.30;26.55;;;;;;;9.82;71.23;101572.22;4940183;28;20501;-51
2022/03/29 05:17:47;;;;;;;67.53;27.00;;;;;;;9.81;70.83;101570.50;4934993;28;20417;-54
2022/03/29 05:20:15;;;;;;;59.08;24.98;;;;;;;9.87;70.90;101562.84;4937207;28;20117;-52
2022/03/29 05:22:48;;;;;;;64.72;27.15;;;;;;;9.94;70.52;101567.34;4933576;28;20545;-54
2022/03/29 05:25:15;;;;;;;64.43;26.23;;;;;;;9.85;70.62;101566.22;4938326;28;20050;-53
2022/03/29 05:27:41;;;;;;;67.35;26.45;;;;;;;9.69;71.18;101563.22;4918635;28;20153;-52
2022/03/29 05:30:07;;;;;;;66.00;26.98;;;;;;;9.83;70.94;101563.59;4933629;28;20073;-57
2022/03/29 05:32:32;;;;;;;64.95;26.45;;;;;;;9.99;70.62;101567.50;4934531;28;20101;-53
2022/03/29 05:34:58;;;;;;;62.20;26.98;;;;;;;10.06;70.63;101569.44;4939419;28;20042;-54
2022/03/29 05:37:23;;;;;;;63.13;26.50;;;;;;;9.95;70.64;101566.53;4941625;28;20046;-55
2022/03/29 05:39:48;;;;;;;61.67;25.48;;;;;;;9.87;70.95;101568.06;4943831;28;20047;-52
2022/03/29 05:42:14;;;;;;;62.53;26.70;;;;;;;10.06;70.53;101569.44;4937905;28;20054;-51
2022/03/29 05:44:40;;;;;;;63.80;27.50;;;;;;;10.00;70.46;101572.72;4931030;28;20065;-54
2022/03/29 05:49:50;;;;;;;56.40;25.33;;;;;;;10.07;69.71;101574.66;4939297;28;20077;-54
2022/03/29 05:52:15;;;;;;;49.90;23.90;;;;;;;9.84;69.40;101578.38;4936419;28;20038;-53
2022/03/29 05:54:44;;;;;;;54.08;23.85;;;;;;;9.90;69.67;101575.06;4931380;28;20043;-55
2022/03/29 05:57:10;;;;;;;50.80;23.50;;;;;;;9.99;69.39;101577.91;4942139;28;20046;-53
2022/03/29 05:59:36;;;;;;;52.28;23.40;;;;;;;10.05;69.22;101581.56;4942057;28;20109;-54
2022/03/29 06:02:04;;;;;;;50.60;23.33;;;;;;;9.82;69.53;101576.59;4941019;28;20780;-51
2022/03/29 06:04:31;;;;;;;54.28;24.02;;;;;;;9.86;69.61;101579.31;4935886;28;20031;-53
2022/03/29 06:06:57;;;;;;;53.88;23.65;;;;;;;9.83;69.97;101575.72;4936306;28;20046;-54
2022/03/29 06:09:22;;;;;;;54.78;23.67;;;;;;;9.85;69.97;101574.94;4931724;28;20053;-50
2022/03/29 06:11:47;;;;;;;54.58;23.02;;;;;;;9.88;69.53;101566.34;4938907;28;20465;-53
2022/03/29 06:14:14;;;;;;;49.45;22.55;;;;;;;10.01;69.34;101561.47;4939865;28;20050;-54
2022/03/29 06:16:40;;;;;;;51.38;23.33;;;;;;;9.90;69.32;101564.63;4930314;28;20494;-51
2022/03/29 06:19:06;;;;;;;50.25;23.88;;;;;;;9.88;69.64;101569.78;4934733;28;20114;-54
2022/03/29 06:21:32;;;;;;;50.88;22.95;;;;;;;9.96;68.80;101565.69;4934036;28;20039;-52
2022/03/29 06:23:57;;;;;;;50.60;23.60;;;;;;;9.92;69.17;101568.16;4939579;28;20498;-53
2022/03/29 06:26:22;;;;;;;50.60;22.95;;;;;;;9.68;69.66;101560.56;4938844;28;20053;-51
2022/03/29 06:28:48;;;;;;;53.38;23.00;;;;;;;9.47;70.48;101567.75;4933096;28;20133;-52
2022/03/29 06:31:13;;;;;;;57.17;23.95;;;;;;;9.66;70.42;101565.72;4936753;28;20054;-55
2022/03/29 06:33:38;;;;;;;53.72;23.23;;;;;;;9.84;69.89;101567.06;4940422;28;20042;-52
2022/03/29 06:36:04;;;;;;;55.10;23.83;;;;;;;9.67;70.34;101569.22;4938666;28;20070;-54
2022/03/29 06:38:31;;;;;;;55.13;22.73;;;;;;;9.80;69.81;101573.94;4934343;28;20035;-51
2022/03/29 06:40:58;;;;;;;51.65;23.30;;;;;;;9.74;70.31;101578.97;4932292;28;20057;-51
2022/03/29 06:43:23;;;;;;;46.05;22.95;;;;;;;9.84;69.47;101573.16;4933725;28;20921;-52
2022/03/29 06:45:48;;;;;;;51.22;22.75;;;;;;;9.69;69.88;101581.44;4930653;28;20034;-53
2022/03/29 06:48:14;;;;;;;54.28;23.90;;;;;;;9.82;69.80;101581.78;4928438;28;20078;-51
2022/03/29 06:50:40;;;;;;;55.10;23.27;;;;;;;9.80;69.96;101575.66;4927481;28;20050;-52
2022/03/29 06:53:06;;;;;;;55.78;23.20;;;;;;;9.91;69.46;101575.09;4934221;28;20043;-54
2022/03/29 06:55:32;;;;;;;51.20;23.48;;;;;;;9.85;68.86;101576.66;4931931;28;20039;-54
2022/03/29 06:57:57;;;;;;;50.78;22.92;;;;;;;9.98;68.86;101568.34;4934096;28;20066;-57
2022/03/29 07:00:23;;;;;;;54.65;24.02;;;;;;;9.91;68.39;101562.06;4934393;28;20716;-54
2022/03/29 07:02:51;;;;;;;54.42;24.48;;;;;;;9.61;69.37;101564.72;4928724;28;20113;-51
2022/03/29 07:05:16;;;;;;;50.33;23.67;;;;;;;9.52;69.64;101580.06;4942627;28;20053;-53
2022/03/29 07:07:42;;;;;;;56.40;23.75;;;;;;;9.72;69.07;101568.50;4936533;28;20050;-54
2022/03/29 07:12:54;;;;;;;56.33;22.85;;;;;;;9.77;68.71;101584.25;4931712;28;20743;-54
2022/03/29 07:15:20;;;;;;;51.58;23.75;;;;;;;9.92;67.92;101578.59;4936166;28;20066;-54
2022/03/29 07:17:46;;;;;;;49.53;23.33;;;;;;;9.97;67.28;101583.06;4937351;28;20574;-53
2022/03/29 07:20:12;;;;;;;49.42;22.88;;;;;;;10.11;67.07;101573.91;4938364;28;20058;-52
2022/03/29 07:22:38;;;;;;;51.38;23.35;;;;;;;10.16;66.50;101574.03;4933983;28;20465;-57
2022/03/29 07:25:04;;;;;;;52.72;23.45;;;;;;;10.24;66.12;101580.38;4932257;28;20050;-56
2022/03/29 07:27:31;;;;;;;51.28;22.95;;;;;;;10.18;66.40;101575.84;4935780;28;20059;-53
2022/03/29 07:29:57;;;;;;;48.70;22.85;;;;;;;10.13;66.71;101576.53;4928115;28;20049;-52
2022/03/29 07:32:23;;;;;;;44.95;22.25;;;;;;;10.30;66.07;101580.53;4936189;28;20468;-51
2022/03/29 07:34:48;;;;;;;45.50;21.90;;;;;;;10.17;66.09;101575.84;4929360;28;20766;-55
2022/03/29 07:37:13;;;;;;;45.47;21.60;;;;;;;10.13;66.16;101568.72;4935384;28;20046;-53
2022/03/29 07:39:40;;;;;;;39.22;20.77;;;;;;;10.28;65.98;101573.50;4936178;28;20047;-56
2022/03/29 07:42:06;;;;;;;41.42;20.98;;;;;;;10.37;64.85;101577.22;4932945;28;20121;-55
2022/03/29 07:44:31;;;;;;;38.85;19.63;;;;;;;10.45;65.03;101586.13;4934812;28;20153;-55
2022/03/29 07:46:57;;;;;;;37.63;19.23;;;;;;;10.33;64.97;101571.88;4935814;28;20113;-56
2022/03/29 07:49:22;;;;;;;39.45;19.08;;;;;;;10.60;63.92;101572.59;4938983;28;20131;-58
2022/03/29 07:51:47;;;;;;;37.78;19.27;;;;;;;10.64;63.89;101571.81;4936868;28;20453;-54
2022/03/29 07:54:13;;;;;;;41.53;20.98;;;;;;;10.69;63.39;101567.56;4935071;28;20051;-54
2022/03/29 07:56:38;;;;;;;44.50;21.52;;;;;;;10.71;63.45;101559.78;4922544;28;20051;-52
2022/03/29 07:59:04;;;;;;;40.67;21.83;;;;;;;10.71;63.32;101559.78;4929243;28;20454;-56
2022/03/29 08:01:30;;;;;;;41.38;21.65;;;;;;;10.82;63.51;101558.31;4937781;28;20546;-55
2022/03/29 08:03:55;;;;;;;41.40;22.42;;;;;;;11.03;63.07;101569.25;4941359;28;20452;-55
2022/03/29 08:06:21;;;;;;;42.35;22.08;;;;;;;11.04;63.08;101568.38;4934883;28;20100;-54
2022/03/29 08:08:47;;;;;;;43.05;21.15;;;;;;;10.65;63.84;101559.66;4924952;28;20377;-55
2022/03/29 08:11:13;;;;;;;42.00;21.50;;;;;;;10.74;63.62;101562.47;4939575;28;20447;-54
2022/03/29 08:13:39;;;;;;;43.53;21.67;;;;;;;10.96;63.03;101564.75;4931471;28;20133;-55
2022/03/29 08:16:04;;;;;;;41.47;20.73;;;;;;;11.03;62.78;101556.22;4932260;28;20078;-53
2022/03/29 08:18:31;;;;;;;40.80;21.33;;;;;;;11.17;61.90;101559.97;4934672;28;20529;-53
2022/03/29 08:20:57;;;;;;;39.97;21.40;;;;;;;10.86;61.99;101557.53;4929899;28;20054;-53
2022/03/29 08:23:22;;;;;;;37.63;20.35;;;;;;;11.09;63.09;101560.69;4931192;28;20043;-51
2022/03/29 08:25:48;;;;;;;40.65;21.58;;;;;;;11.52;61.48;101554.63;4927887;28;20051;-52
2022/03/29 08:28:14;;;;;;;43.80;21.30;;;;;;;11.52;60.67;101552.03;4938776;28;20049;-54
2022/03/29 08:30:41;;;;;;;44.83;21.38;;;;;;;11.40;61.91;101545.69;4927362;28;20054;-53
2022/03/29 08:33:08;;;;;;;39.45;21.40;;;;;;;11.31;61.52;101552.47;4933339;28;20109;-54
2022/03/29 08:35:34;;;;;;;37.85;20.33;;;;;;;11.53;60.62;101565.09;4936862;28;20061;-54
2022/03/29 08:38:01;;;;;;;39.15;20.90;;;;;;;11.51;60.97;101555.50;4931936;28;20581;-54
2022/03/29 08:40:26;;;;;;;44.78;21.45;;;;;;;11.63;60.73;101555.72;4934607;28;20401;-55
2022/03/29 08:42:54;;;;;;;41.22;21.85;;;;;;;11.50;60.74;101551.09;4928577;28;20511;-53
2022/03/29 08:45:25;;;;;;;41.95;21.75;;;;;;;11.54;61.13;101556.41;4937600;28;20046;-54
2022/03/29 08:47:52;;;;;;;39.83;21.05;;;;;;;11.62;59.82;101552.25;4938843;28;20442;-53
2022/03/29 08:50:17;;;;;;;43.58;22.17;;;;;;;11.46;60.28;101558.00;4932017;28;20454;-53
2022/03/29 08:52:44;;;;;;;41.72;21.55;;;;;;;11.57;60.59;101558.22;4935683;28;20123;-51
2022/03/29 08:55:10;;;;;;;42.35;21.50;;;;;;;11.68;59.69;101554.97;4936548;28;20503;-54
2022/03/29 08:57:37;;;;;;;40.83;21.80;;;;;;;11.83;59.95;101537.88;4941587;28;20204;-55
2022/03/29 09:00:04;;;;;;;40.90;21.50;;;;;;;11.56;61.02;101540.78;4943102;28;20054;-55
2022/03/29 09:02:35;;;;;;;41.78;20.83;;;;;;;11.86;59.84;101540.53;4937805;28;20034;-54
2022/03/29 09:05:15;;;;;;;47.15;21.27;;;;;;;11.88;60.26;101541.44;4942228;28;20649;-53
2022/03/29 09:07:54;;;;;;;42.25;19.92;;;;;;;11.82;59.16;101536.09;4939014;28;20050;-52
2022/03/29 09:10:39;;;;;;;39.13;20.70;;;;;;;11.97;60.65;101545.09;4940447;28;20601;-53
2022/03/29 09:13:24;;;;;;;39.10;19.80;;;;;;;12.16;58.44;101546.31;4939206;28;20168;-55
2022/03/29 09:15:52;;;;;;;39.10;21.00;;;;;;;12.07;58.53;101541.81;4945071;28;20426;-53
2022/03/29 09:18:18;;;;;;;40.33;21.25;;;;;;;11.99;58.14;101539.91;4942429;28;20151;-53
2022/03/29 09:20:45;;;;;;;40.60;21.02;;;;;;;11.92;58.91;101545.88;4930439;28;20066;-51
2022/03/29 09:23:15;;;;;;;44.20;20.92;;;;;;;12.02;58.99;101545.16;4934806;28;20050;-53
2022/03/29 09:25:50;;;;;;;36.03;20.42;;;;;;;12.10;58.89;101544.47;4939684;28;20133;-51
2022/03/29 09:28:17;;;;;;;41.67;20.85;;;;;;;12.03;58.02;101550.44;4939005;28;20066;-51
2022/03/29 09:30:52;;;;;;;40.47;21.08;;;;;;;11.98;58.56;101553.81;4934061;28;20734;-54
2022/03/29 09:33:20;;;;;;;38.92;20.02;;;;;;;12.12;58.19;101545.38;4940337;28;20412;-54
2022/03/29 09:36:03;;;;;;;41.40;20.70;;;;;;;12.24;58.17;101544.72;4942805;28;20046;-53
2022/03/29 09:38:39;;;;;;;39.70;21.25;;;;;;;12.49;56.88;101532.94;4937224;28;20057;-52
2022/03/29 09:41:19;;;;;;;39.10;20.90;;;;;;;12.67;57.11;101528.00;4937574;28;20042;-55
2022/03/29 09:43:58;;;;;;;39.38;20.23;;;;;;;12.97;56.63;101530.16;4941241;28;20031;-53
2022/03/29 09:46:23;;;;;;;37.03;20.65;;;;;;;13.00;56.32;101527.56;4939031;28;20548;-53
2022/03/29 09:48:50;;;;;;;43.30;22.08;;;;;;;12.26;59.28;101529.91;4931315;28;20655;-52
2022/03/29 09:51:18;;;;;;;37.42;20.95;;;;;;;12.55;57.74;101522.56;4934804;28;20298;-55
2022/03/29 09:53:48;;;;;;;44.83;22.63;;;;;;;12.82;57.53;101528.19;4937828;28;20619;-55
2022/03/29 09:56:16;;;;;;;45.53;22.33;;;;;;;12.89;56.67;101522.19;4936611;28;20063;-57
2022/03/29 09:58:42;;;;;;;43.38;21.83;;;;;;;13.02;56.68;101516.28;4925271;28;20043;-55
2022/03/29 10:01:22;;;;;;;42.55;21.83;;;;;;;12.71;56.91;101519.31;4940993;28;20576;-54
2022/03/29 10:03:50;;;;;;;42.78;21.42;;;;;;;13.05;55.58;101511.97;4934308;28;20228;-54
2022/03/29 10:06:17;;;;;;;41.53;21.35;;;;;;;12.90;56.67;101516.13;4937544;28;20058;-52
2022/03/29 10:11:32;;;;;;;41.03;20.10;;;;;;;13.50;54.80;101504.69;4943843;28;21149;-56
2022/03/29 10:13:59;;;;;;;39.15;20.65;;;;;;;12.91;55.52;101514.38;4928080;28;20043;-51
2022/03/29 10:16:26;;;;;;;38.67;20.08;;;;;;;12.94;55.58;101511.78;4938599;28;20042;-52
2022/03/29 10:18:54;;;;;;;44.60;21.45;;;;;;;12.96;57.12;101504.84;4930622;28;20259;-53
2022/03/29 10:21:20;;;;;;;38.78;20.58;;;;;;;12.88;56.57;101509.09;4936203;28;20051;-53
2022/03/29 10:23:46;;;;;;;39.92;20.45;;;;;;;12.77;56.86;101510.69;4940475;28;20042;-55
2022/03/29 10:26:22;;;;;;;40.13;20.88;;;;;;;12.77;56.44;101503.72;4935238;28;20078;-54
2022/03/29 10:28:49;;;;;;;40.00;19.30;;;;;;;12.91;55.83;101503.91;4929188;28;20492;-52
2022/03/29 10:31:41;;;;;;;39.22;20.15;;;;;;;12.86;56.80;101511.72;4938571;28;20418;-51
2022/03/29 10:34:11;;;;;;;38.97;19.88;;;;;;;12.96;55.11;101507.47;4936926;28;20574;-54
2022/03/29 10:36:59;;;;;;;37.80;20.10;;;;;;;12.91;56.62;101501.28;4925167;28;20126;-57
2022/03/29 10:39:49;;;;;;;40.00;20.10;;;;;;;13.20;55.90;101497.34;4936800;28;20503;-53
2022/03/29 10:42:44;;;;;;;38.28;19.98;;;;;;;13.36;54.51;101495.78;4931356;28;20691;-54
2022/03/29 10:45:24;;;;;;;43.55;20.27;;;;;;;13.26;55.28;101493.94;4927115;28;20713;-53
2022/03/29 10:48:09;;;;;;;39.15;20.45;;;;;;;12.87;55.89;101486.38;4934266;28;20097;-53
2022/03/29 10:50:53;;;;;;;39.55;20.17;;;;;;;13.06;54.69;101485.78;4929155;28;20047;-60
2022/03/29 10:53:21;;;;;;;37.67;20.95;;;;;;;13.38;55.56;101479.25;4935705;28;20043;-54
2022/03/29 10:56:13;;;;;;;38.33;20.70;;;;;;;13.57;54.90;101484.69;4938549;28;20050;-54
2022/03/29 10:59:00;;;;;;;38.10;19.83;;;;;;;13.65;55.29;101481.28;4931444;28;20489;-55
2022/03/29 11:01:25;;;;;;;36.30;19.92;;;;;;;13.68;53.70;101477.81;4939474;28;20169;-55
2022/03/29 11:04:01;;;;;;;39.58;19.27;;;;;;;13.54;53.11;101482.03;4940326;28;20045;-54
2022/03/29 11:06:34;;;;;;;39.17;20.13;;;;;;;13.37;53.59;101474.84;4934059;28;20049;-53
2022/03/29 11:09:08;;;;;;;36.37;20.43;;;;;;;13.57;54.04;101472.47;4934408;28;20066;-53
2022/03/29 11:11:47;;;;;;;37.28;20.45;;;;;;;13.75;53.81;101464.78;4938202;28;20411;-54
2022/03/29 11:14:33;;;;;;;40.92;20.35;;;;;;;13.78;53.27;101458.72;4940652;28;20569;-53
2022/03/29 11:17:14;;;;;;;40.45;19.88;;;;;;;13.80;53.74;101455.22;4936324;28;20478;-54
2022/03/29 11:19:48;;;;;;;34.45;19.85;;;;;;;13.93;52.52;101450.09;4937593;28;20522;-56
2022/03/29 11:22:42;;;;;;;35.92;20.20;;;;;;;13.87;53.27;101452.66;4934949;28;20109;-55